createdAt,value
2022-11-04T00:00:29.676Z,7.70
2022-11-04T00:02:56.859Z,6.40
2022-11-04T00:05:23.338Z,8.32
2022-11-04T00:08:08.576Z,8.75
2022-11-04T00:10:53.784Z,11.18
2022-11-04T00:13:20.734Z,6.50
2022-11-04T00:16:11.402Z,6.88
2022-11-04T00:18:40.031Z,9.48
2022-11-04T00:21:24.958Z,6.95
2022-11-04T00:24:10.636Z,8.73
2022-11-04T00:26:56.405Z,5.93
2022-11-04T00:29:22.963Z,8.40
2022-11-04T00:32:08.075Z,9.93
2022-11-04T00:34:34.568Z,6.03
2022-11-04T00:37:02.961Z,8.07
2022-11-04T00:39:29.977Z,8.07
2022-11-04T00:41:56.543Z,8.48
2022-11-04T00:44:23.048Z,9.85
2022-11-04T00:46:49.700Z,8.68
2022-11-04T00:49:16.458Z,4.72
2022-11-04T00:51:42.958Z,5.45
2022-11-04T00:54:09.653Z,7.10
2022-11-04T00:56:40.860Z,7.15
2022-11-04T00:59:10.396Z,6.72
2022-11-04T01:01:40.597Z,10.43
2022-11-04T01:04:07.381Z,6.95
2022-11-04T01:06:33.911Z,9.82
2022-11-04T01:09:04.588Z,8.25
2022-11-04T01:11:31.491Z,9.77
2022-11-04T01:13:58.487Z,8.50
2022-11-04T01:18:51.729Z,7.15
2022-11-04T01:21:18.381Z,5.18
2022-11-04T01:23:45.514Z,8.52
2022-11-04T01:26:20.852Z,8.02
2022-11-04T01:28:47.980Z,6.45
2022-11-04T01:31:16.999Z,8.48
2022-11-04T01:33:43.762Z,8.43
2022-11-04T01:36:11.592Z,6.15
2022-11-04T01:38:39.189Z,8.80
2022-11-04T01:41:07.272Z,9.73
2022-11-04T01:43:54.488Z,6.60
2022-11-04T01:46:39.768Z,11.18
2022-11-04T01:49:18.611Z,8.70
2022-11-04T01:51:49.712Z,8.15
2022-11-04T01:54:17.084Z,6.70
2022-11-04T01:56:45.885Z,9.90
2022-11-04T01:59:18.613Z,8.52
2022-11-04T02:01:45.899Z,9.23
2022-11-04T02:04:26.820Z,6.18
2022-11-04T02:06:59.518Z,6.55
2022-11-04T02:09:29.604Z,9.63
2022-11-04T02:12:15.428Z,9.35
2022-11-04T02:14:43.336Z,8.93
2022-11-04T02:17:38.492Z,9.38
2022-11-04T02:20:48.760Z,7.97
2022-11-04T02:23:46.693Z,8.02
2022-11-04T02:26:39.531Z,6.82
2022-11-04T02:29:15.918Z,9.07
2022-11-04T02:32:04.561Z,8.27
2022-11-04T02:34:41.436Z,6.65
2022-11-04T02:37:35.418Z,8.65
2022-11-04T02:40:26.673Z,8.38
2022-11-04T02:43:02.910Z,6.97
2022-11-04T02:45:44.514Z,7.25
2022-11-04T02:48:41.366Z,6.97
2022-11-04T02:51:12.635Z,9.18
2022-11-04T02:53:46.220Z,7.00
2022-11-04T02:56:14.794Z,5.03
2022-11-04T02:59:05.340Z,7.05
2022-11-04T03:01:36.682Z,5.72
2022-11-04T03:04:13.765Z,6.80
2022-11-04T03:06:43.660Z,6.47
2022-11-04T03:09:13.740Z,9.65
2022-11-04T03:11:45.680Z,7.85
2022-11-04T03:14:28.839Z,8.30
2022-11-04T03:17:01.593Z,8.18
2022-11-04T03:19:41.400Z,9.88
2022-11-04T03:22:12.888Z,8.48
2022-11-04T03:24:41.580Z,6.30
2022-11-04T03:27:20.681Z,8.48
2022-11-04T03:29:55.480Z,8.60
2022-11-04T03:32:37.464Z,8.15
2022-11-04T03:35:04.921Z,5.95
2022-11-04T03:37:33.913Z,5.70
2022-11-04T03:40:00.973Z,10.10
2022-11-04T03:42:30.691Z,8.95
2022-11-04T03:44:57.970Z,8.32
2022-11-04T03:47:27.780Z,12.25
2022-11-04T03:50:20.011Z,9.02
2022-11-04T03:52:47.697Z,7.95
2022-11-04T03:55:15.366Z,8.38
2022-11-04T03:57:50.902Z,7.78
2022-11-04T04:00:20.370Z,9.90
2022-11-04T04:03:10.612Z,10.38
2022-11-04T04:05:52.579Z,7.05
2022-11-04T04:09:05.838Z,12.77
2022-11-04T04:11:44.968Z,9.43
2022-11-04T04:14:41.123Z,9.43
2022-11-04T04:20:00.751Z,7.30
2022-11-04T04:23:30.522Z,11.10
2022-11-04T04:26:22.265Z,6.43
2022-11-04T04:28:50.694Z,11.82
2022-11-04T04:31:39.027Z,8.68
2022-11-04T04:34:06.525Z,8.32
2022-11-04T04:36:37.953Z,7.50
2022-11-04T04:39:27.420Z,8.85
2022-11-04T04:42:13.996Z,7.70
2022-11-04T04:47:42.569Z,8.57
2022-11-04T04:50:10.539Z,9.95
2022-11-04T04:52:40.545Z,7.78
2022-11-04T04:55:08.644Z,6.82
2022-11-04T04:57:35.250Z,8.68
2022-11-04T05:00:01.887Z,8.35
2022-11-04T05:02:28.496Z,6.78
2022-11-04T05:04:56.320Z,7.30
2022-11-04T05:07:23.062Z,5.38
2022-11-04T05:09:49.708Z,9.93
2022-11-04T05:12:16.319Z,7.93
2022-11-04T05:14:43.206Z,5.25
2022-11-04T05:17:10.398Z,5.40
2022-11-04T05:19:36.906Z,6.53
2022-11-04T05:22:04.143Z,7.70
2022-11-04T05:24:37.687Z,4.43
2022-11-04T05:27:04.309Z,4.60
2022-11-04T05:29:30.852Z,5.85
2022-11-04T05:31:58.103Z,6.07
2022-11-04T05:34:31.222Z,4.70
2022-11-04T05:37:00.855Z,4.03
2022-11-04T05:39:33.314Z,4.88
2022-11-04T05:42:01.222Z,4.15
2022-11-04T05:44:28.232Z,3.65
2022-11-04T05:49:22.748Z,3.45
2022-11-04T05:51:49.914Z,3.25
2022-11-04T05:56:47.245Z,2.53
2022-11-04T05:59:20.854Z,3.63
2022-11-04T06:01:49.155Z,1.90
2022-11-04T06:04:24.652Z,2.95
2022-11-04T06:06:53.461Z,2.25
2022-11-04T06:09:20.986Z,2.47
2022-11-04T06:11:48.255Z,2.05
2022-11-04T06:16:52.628Z,1.98
2022-11-04T06:19:22.255Z,1.80
2022-11-04T06:21:51.862Z,2.25
2022-11-04T06:24:25.764Z,1.90
2022-11-04T06:26:53.118Z,3.30
2022-11-04T06:29:20.429Z,2.92
2022-11-04T06:31:47.260Z,2.67
2022-11-04T06:34:14.735Z,2.10
2022-11-04T06:36:42.576Z,3.28
2022-11-04T06:39:14.783Z,2.90
2022-11-04T06:41:43.076Z,2.20
2022-11-04T06:44:15.406Z,3.83
2022-11-04T06:46:52.665Z,2.63
2022-11-04T06:49:30.349Z,2.08
2022-11-04T06:52:11.155Z,2.40
2022-11-04T06:54:41.587Z,2.63
2022-11-04T06:57:11.893Z,3.28
2022-11-04T06:59:43.045Z,2.88
2022-11-04T07:02:16.407Z,2.92
2022-11-04T07:04:44.048Z,2.85
2022-11-04T07:07:17.243Z,3.20
2022-11-04T07:09:46.683Z,2.25
2022-11-04T07:12:19.682Z,3.13
2022-11-04T07:14:57.294Z,3.72
2022-11-04T07:17:28.757Z,2.53
2022-11-04T07:20:38.438Z,2.63
2022-11-04T07:23:31.777Z,4.88
2022-11-04T07:26:03.508Z,3.00
2022-11-04T07:28:58.808Z,2.75
2022-11-04T07:31:28.437Z,3.70
2022-11-04T07:33:56.031Z,4.00
2022-11-04T07:36:23.816Z,3.50
2022-11-04T07:38:54.914Z,3.03
2022-11-04T07:41:22.367Z,2.90
2022-11-04T07:43:56.541Z,3.45
2022-11-04T07:46:23.586Z,3.28
2022-11-04T07:51:32.549Z,3.47
2022-11-04T07:54:00.673Z,3.67
2022-11-04T07:56:27.996Z,3.85
2022-11-04T07:58:55.910Z,3.45
2022-11-04T08:01:27.786Z,4.90
2022-11-04T08:04:08.125Z,5.55
2022-11-04T08:06:46.581Z,3.10
2022-11-04T08:12:30.485Z,3.17
2022-11-04T08:14:57.333Z,4.18
2022-11-04T08:17:24.994Z,3.78
2022-11-04T08:19:51.614Z,3.67
2022-11-04T08:22:18.668Z,5.38
2022-11-04T08:24:47.270Z,4.15
2022-11-04T08:27:14.604Z,3.65
2022-11-04T08:29:41.356Z,3.63
2022-11-04T08:32:08.665Z,7.18
2022-11-04T08:34:35.418Z,4.80
2022-11-04T08:37:02.004Z,6.00
2022-11-04T08:39:28.531Z,3.95
2022-11-04T08:41:55.231Z,5.10
2022-11-04T08:44:22.433Z,7.13
2022-11-04T08:46:49.583Z,4.75
2022-11-04T08:49:20.993Z,6.35
2022-11-04T08:51:54.358Z,4.97
2022-11-04T08:54:21.642Z,8.10
2022-11-04T08:56:52.131Z,4.60
2022-11-04T08:59:19.986Z,5.78
2022-11-04T09:01:48.044Z,5.40
2022-11-04T09:04:15.249Z,4.40
2022-11-04T09:06:46.210Z,5.30
2022-11-04T09:09:19.521Z,4.40
2022-11-04T09:11:46.989Z,5.30
2022-11-04T09:14:16.119Z,4.13
2022-11-04T09:16:44.516Z,4.00
2022-11-04T09:19:11.584Z,4.65
2022-11-04T09:27:05.227Z,3.92
2022-11-04T09:29:38.965Z,4.03
2022-11-04T09:32:08.537Z,6.30
2022-11-04T09:34:38.656Z,4.22
2022-11-04T09:37:05.856Z,4.78
2022-11-04T09:39:38.780Z,3.58
2022-11-04T09:42:49.270Z,6.53
2022-11-04T09:45:33.494Z,4.28
2022-11-04T09:48:18.281Z,3.55
2022-11-04T09:51:48.086Z,3.55
2022-11-04T09:55:02.316Z,4.10
2022-11-04T09:57:36.069Z,3.78
2022-11-04T10:00:06.659Z,4.32
2022-11-04T10:03:21.353Z,4.75
2022-11-04T10:05:55.040Z,4.20
2022-11-04T10:08:37.719Z,3.20
2022-11-04T10:15:45.057Z,3.55
2022-11-04T10:18:50.280Z,3.42
2022-11-04T10:21:54.172Z,4.65
2022-11-04T10:24:41.727Z,3.00
2022-11-04T10:27:23.063Z,3.10
2022-11-04T10:30:25.866Z,4.22
2022-11-04T10:33:00.388Z,2.58
2022-11-04T10:35:53.770Z,4.47
2022-11-04T10:38:36.040Z,4.25
2022-11-04T10:41:24.513Z,2.20
2022-11-04T10:44:02.096Z,2.95
2022-11-04T10:46:48.729Z,2.60
2022-11-04T10:49:33.074Z,2.20
2022-11-04T10:52:11.409Z,1.90
2022-11-04T10:54:53.774Z,2.97
2022-11-04T10:57:37.162Z,4.78
2022-11-04T11:00:24.624Z,3.05
2022-11-04T11:03:03.836Z,2.13
2022-11-04T11:05:48.627Z,4.30
2022-11-04T11:08:38.634Z,3.17
2022-11-04T11:11:15.605Z,4.13
2022-11-04T11:13:55.901Z,1.60
2022-11-04T11:16:28.747Z,3.92
2022-11-04T11:19:31.717Z,3.10
2022-11-04T11:22:33.854Z,2.78
2022-11-04T11:25:45.654Z,3.03
2022-11-04T11:28:27.163Z,1.48
2022-11-04T11:31:02.006Z,2.63
2022-11-04T11:33:39.628Z,3.05
2022-11-04T11:36:15.725Z,2.70
2022-11-04T11:38:57.866Z,2.22
2022-11-04T11:41:32.306Z,1.65
2022-11-04T11:44:22.085Z,1.83
2022-11-04T11:47:05.573Z,2.00
2022-11-04T11:49:38.526Z,1.40
2022-11-04T11:52:28.573Z,3.22
2022-11-04T11:55:07.808Z,4.57
2022-11-04T12:01:05.243Z,3.10
2022-11-04T12:10:18.311Z,2.58
2022-11-04T12:13:24.435Z,2.60
2022-11-04T12:16:20.230Z,2.67
2022-11-04T12:19:02.565Z,3.40
2022-11-04T12:21:58.907Z,2.22
2022-11-04T12:24:34.716Z,3.90
2022-11-04T12:27:28.074Z,1.98
2022-11-04T12:30:08.152Z,2.00
2022-11-04T12:33:10.557Z,1.70
2022-11-04T12:35:52.810Z,3.20
2022-11-04T12:38:42.964Z,3.05
2022-11-04T12:41:46.820Z,3.33
2022-11-04T12:44:25.598Z,4.03
2022-11-04T12:47:04.104Z,2.92
2022-11-04T12:49:58.026Z,4.60
2022-11-04T12:52:37.034Z,2.92
2022-11-04T12:55:44.105Z,2.30
2022-11-04T12:58:57.922Z,3.75
2022-11-04T13:01:55.898Z,5.68
2022-11-04T13:04:59.360Z,2.83
2022-11-04T13:07:45.038Z,3.40
2022-11-04T13:10:38.123Z,4.35
2022-11-04T13:13:09.164Z,3.30
2022-11-04T13:16:00.116Z,3.05
2022-11-04T13:18:40.475Z,2.20
2022-11-04T13:21:23.993Z,4.55
2022-11-04T13:24:16.368Z,2.80
2022-11-04T13:26:58.787Z,2.47
2022-11-04T13:29:57.938Z,2.90
2022-11-04T13:32:38.762Z,2.63
2022-11-04T13:35:39.964Z,3.28
2022-11-04T13:38:33.389Z,2.35
2022-11-04T13:41:21.324Z,2.33
2022-11-04T13:44:03.053Z,2.28
2022-11-04T13:46:36.363Z,3.47
2022-11-04T13:49:24.645Z,4.28
2022-11-04T13:54:44.687Z,3.75
2022-11-04T13:57:20.342Z,2.08
2022-11-04T14:00:12.639Z,3.15
2022-11-04T14:03:02.655Z,4.78
2022-11-04T14:05:30.596Z,3.50
2022-11-04T14:08:03.709Z,2.60
2022-11-04T14:10:37.745Z,3.63
2022-11-04T14:13:27.133Z,2.55
2022-11-04T14:16:25.182Z,2.45
2022-11-04T14:18:59.543Z,4.53
2022-11-04T14:21:58.889Z,2.10
2022-11-04T14:24:33.345Z,2.95
2022-11-04T14:27:08.642Z,3.00
2022-11-04T14:30:18.435Z,2.88
2022-11-04T14:33:08.702Z,2.00
2022-11-04T14:35:40.291Z,4.63
2022-11-04T14:38:33.000Z,3.95
2022-11-04T14:41:15.002Z,4.13
2022-11-04T14:43:48.003Z,3.58
2022-11-04T14:46:41.865Z,6.38
2022-11-04T14:49:40.063Z,4.60
2022-11-04T14:52:35.239Z,3.90
2022-11-04T14:55:22.553Z,2.83
2022-11-04T15:01:45.817Z,3.35
2022-11-04T15:04:22.116Z,2.60
2022-11-04T15:07:07.675Z,2.17
2022-11-04T15:10:08.164Z,2.40
2022-11-04T15:13:00.725Z,1.95
2022-11-04T15:15:42.630Z,1.95
2022-11-04T15:18:15.535Z,2.45
2022-11-04T15:20:53.855Z,4.53
2022-11-04T15:23:55.779Z,1.48
2022-11-04T15:26:29.737Z,2.08
2022-11-04T15:29:00.967Z,2.22
2022-11-04T15:31:35.054Z,2.13
2022-11-04T15:34:13.285Z,3.75
2022-11-04T15:37:05.293Z,1.83
2022-11-04T15:39:40.071Z,3.53
2022-11-04T15:42:29.724Z,3.45
2022-11-04T15:44:56.942Z,3.28
2022-11-04T15:51:25.057Z,2.78
2022-11-04T15:54:07.507Z,2.05
2022-11-04T15:56:50.181Z,2.88
2022-11-04T15:59:25.781Z,2.78
2022-11-04T16:01:53.740Z,4.50
2022-11-04T16:04:50.325Z,5.05
2022-11-04T16:07:17.478Z,4.85
2022-11-04T16:09:48.357Z,5.45
2022-11-04T16:12:28.505Z,3.40
2022-11-04T16:14:57.635Z,2.50
2022-11-04T16:17:26.514Z,3.40
2022-11-04T16:20:03.656Z,3.45
2022-11-04T16:22:34.385Z,6.95
2022-11-04T16:25:04.200Z,3.05
2022-11-04T16:27:35.116Z,3.28
2022-11-04T16:30:23.179Z,3.30
2022-11-04T16:32:54.115Z,3.72
2022-11-04T16:35:24.935Z,2.55
2022-11-04T16:37:52.907Z,5.18
2022-11-04T16:40:22.267Z,3.55
2022-11-04T16:42:50.895Z,3.40
2022-11-04T16:45:30.542Z,3.05
2022-11-04T16:47:57.932Z,2.78
2022-11-04T16:50:26.771Z,3.60
2022-11-04T16:52:54.355Z,4.43
2022-11-04T16:55:23.771Z,5.63
2022-11-04T16:57:58.950Z,5.90
2022-11-04T17:00:27.544Z,3.90
2022-11-04T17:02:54.975Z,4.70
2022-11-04T17:05:22.703Z,5.10
2022-11-04T17:07:57.511Z,3.72
2022-11-04T17:10:28.425Z,3.03
2022-11-04T17:12:55.565Z,4.00
2022-11-04T17:15:22.775Z,4.47
2022-11-04T17:17:50.760Z,2.05
2022-11-04T17:20:18.886Z,2.03
2022-11-04T17:22:50.460Z,2.50
2022-11-04T17:25:26.071Z,3.78
2022-11-04T17:27:59.750Z,4.47
2022-11-04T17:30:28.777Z,2.70
2022-11-04T17:44:50.326Z,2.42
2022-11-04T17:47:26.653Z,4.00
2022-11-04T17:49:53.865Z,3.63
2022-11-04T17:52:24.899Z,3.20
2022-11-04T17:54:51.828Z,5.93
2022-11-04T17:57:22.501Z,2.92
2022-11-04T18:00:30.264Z,3.60
2022-11-04T18:03:09.154Z,1.83
2022-11-04T18:05:37.617Z,2.72
2022-11-04T18:17:07.659Z,3.75
2022-11-04T18:19:36.195Z,3.35
2022-11-04T18:22:03.700Z,4.38
2022-11-04T18:24:32.977Z,6.25
2022-11-04T18:29:33.144Z,4.70
2022-11-04T18:32:01.440Z,2.15
2022-11-04T18:34:28.579Z,3.65
2022-11-04T18:39:49.878Z,3.05
2022-11-04T18:42:16.647Z,3.33
2022-11-04T18:44:43.897Z,2.50
2022-11-04T18:47:18.664Z,3.65
2022-11-04T18:49:47.892Z,2.90
2022-11-04T18:52:25.197Z,4.13
2022-11-04T18:54:52.894Z,3.38
2022-11-04T18:57:55.702Z,3.38
2022-11-04T19:00:22.952Z,3.83
2022-11-04T19:03:06.564Z,5.22
2022-11-04T19:05:33.392Z,4.63
2022-11-04T19:08:00.721Z,3.10
2022-11-04T19:10:27.838Z,4.13
2022-11-04T19:13:13.835Z,6.43
2022-11-04T19:15:40.706Z,3.65
2022-11-04T19:18:08.329Z,10.82
2022-11-04T19:20:35.760Z,5.63
2022-11-04T19:23:03.099Z,6.65
2022-11-04T19:25:30.682Z,5.53
2022-11-04T19:28:31.448Z,4.95
2022-11-04T19:30:57.768Z,4.50
2022-11-04T19:33:51.183Z,5.63
2022-11-04T19:36:23.491Z,5.53
2022-11-04T19:38:55.056Z,6.00
2022-11-04T19:44:33.649Z,5.47
2022-11-04T19:47:00.532Z,7.63
2022-11-04T19:49:31.648Z,5.25
2022-11-04T19:52:01.737Z,5.57
2022-11-04T19:54:28.583Z,6.25
2022-11-04T19:59:22.788Z,4.05
2022-11-04T20:04:19.971Z,4.18
2022-11-04T20:06:46.711Z,3.33
2022-11-04T20:09:14.163Z,5.03
2022-11-04T20:12:00.682Z,6.13
2022-11-04T20:14:28.685Z,7.22
2022-11-04T20:17:00.625Z,5.20
2022-11-04T20:19:27.482Z,7.35
2022-11-04T20:21:59.591Z,7.18
2022-11-04T20:24:27.145Z,4.13
2022-11-04T20:26:55.068Z,5.55
2022-11-04T20:29:25.406Z,6.15
2022-11-04T20:31:52.485Z,5.90
2022-11-04T20:37:15.787Z,6.10
2022-11-04T20:39:43.990Z,5.20
2022-11-04T20:42:10.981Z,5.50
2022-11-04T20:47:13.452Z,6.25
2022-11-04T20:52:08.077Z,4.70
2022-11-04T20:54:35.093Z,4.22
2022-11-04T20:59:28.622Z,5.80
2022-11-04T21:01:56.099Z,5.85
2022-11-04T21:04:23.304Z,8.05
2022-11-04T21:09:21.452Z,5.45
2022-11-04T21:11:52.580Z,6.68
2022-11-04T21:14:20.117Z,5.20
2022-11-04T21:16:47.405Z,6.70
2022-11-04T21:19:22.163Z,4.90
2022-11-04T21:21:51.601Z,6.30
2022-11-04T21:24:24.574Z,4.70
2022-11-04T21:26:54.856Z,4.30
2022-11-04T21:29:48.271Z,3.60
2022-11-04T21:32:18.920Z,4.32
2022-11-04T21:34:53.416Z,4.78
2022-11-04T21:37:24.524Z,5.32
2022-11-04T21:39:53.668Z,3.72
2022-11-04T21:42:25.327Z,5.05
2022-11-04T21:44:52.702Z,4.95
2022-11-04T21:47:19.864Z,3.47
2022-11-04T21:49:46.834Z,3.88
2022-11-04T21:52:13.725Z,4.72
2022-11-04T21:54:50.042Z,7.03
2022-11-04T21:57:17.145Z,7.10
2022-11-04T21:59:44.829Z,5.75
2022-11-04T22:02:12.394Z,4.85
2022-11-04T22:04:39.163Z,7.30
2022-11-04T22:07:06.443Z,4.20
2022-11-04T22:09:33.277Z,5.20
2022-11-04T22:12:07.015Z,3.28
2022-11-04T22:14:33.710Z,4.50
2022-11-04T22:17:00.726Z,6.80
2022-11-04T22:29:14.612Z,4.28
2022-11-04T22:31:43.139Z,4.47
2022-11-04T22:34:10.504Z,6.20
2022-11-04T22:36:39.339Z,4.07
2022-11-04T22:39:08.354Z,5.18
2022-11-04T22:41:37.827Z,5.13
2022-11-04T22:44:04.605Z,5.50
2022-11-04T22:46:36.165Z,4.97
2022-11-04T22:49:03.248Z,7.10
2022-11-04T22:51:33.703Z,4.43
2022-11-04T22:54:07.603Z,6.57
2022-11-04T22:56:35.162Z,7.28
2022-11-04T23:01:31.915Z,5.60
2022-11-04T23:03:59.071Z,6.55
2022-11-04T23:06:26.331Z,4.47
2022-11-04T23:08:59.670Z,5.18
2022-11-04T23:11:48.326Z,4.38
2022-11-04T23:14:36.428Z,5.20
2022-11-04T23:17:30.460Z,4.65
2022-11-04T23:19:57.541Z,3.17
2022-11-04T23:25:10.374Z,3.53
2022-11-04T23:28:02.826Z,3.72
2022-11-04T23:30:33.890Z,5.05
2022-11-04T23:33:03.328Z,5.53
2022-11-04T23:36:08.201Z,3.90
2022-11-04T23:38:37.943Z,4.97
2022-11-04T23:41:26.552Z,6.75
2022-11-04T23:43:53.362Z,5.78
2022-11-04T23:46:42.930Z,5.68
2022-11-04T23:49:29.872Z,4.63
2022-11-04T23:52:15.168Z,5.55
2022-11-04T23:55:00.659Z,7.75
2022-11-04T23:57:45.984Z,7.90
